sensor_id;sensor_type;location;lat;lon;timestamp;pressure;altitude;pressure_sealevel;temperature;humidity
71485;BME280;59300;52.074;4.758;2022-11-02T00:02:04;101306.94;;;10.17;100.00
71485;BME280;59300;52.074;4.758;2022-11-02T00:05:10;101307.91;;;10.12;100.00
71485;BME280;59300;52.074;4.758;2022-11-02T00:08:11;101315.75;;;10.15;100.00
71485;BME280;59300;52.074;4.758;2022-11-02T00:11:13;101318.28;;;10.22;100.00
71485;BME280;59300;52.074;4.758;2022-11-02T00:14:14;101309.31;;;10.30;100.00
71485;BME280;59300;52.074;4.758;2022-11-02T00:17:16;101324.16;;;10.38;100.00
71485;BME280;59300;52.074;4.758;2022-11-02T00:20:18;101313.50;;;10.42;100.00
71485;BME280;59300;52.074;4.758;2022-11-02T00:23:21;101320.59;;;10.40;100.00
71485;BME280;59300;52.074;4.758;2022-11-02T00:26:24;101316.88;;;10.51;100.00
71485;BME280;59300;52.074;4.758;2022-11-02T00:29:26;101320.22;;;10.59;100.00
71485;BME280;59300;52.074;4.758;2022-11-02T00:32:33;101327.09;;;10.66;100.00
71485;BME280;59300;52.074;4.758;2022-11-02T00:35:36;101350.09;;;10.61;100.00
71485;BME280;59300;52.074;4.758;2022-11-02T00:38:38;101354.00;;;10.41;100.00
71485;BME280;59300;52.074;4.758;2022-11-02T00:41:40;101330.75;;;10.13;100.00
71485;BME280;59300;52.074;4.758;2022-11-02T00:44:42;101309.25;;;9.87;100.00
71485;BME280;59300;52.074;4.758;2022-11-02T00:47:44;101334.13;;;9.70;100.00
71485;BME280;59300;52.074;4.758;2022-11-02T00:50:46;101327.22;;;9.61;100.00
71485;BME280;59300;52.074;4.758;2022-11-02T00:53:48;101327.50;;;9.44;100.00
71485;BME280;59300;52.074;4.758;2022-11-02T00:56:50;101301.50;;;9.22;100.00
71485;BME280;59300;52.074;4.758;2022-11-02T00:59:52;101302.34;;;9.25;100.00
71485;BME280;59300;52.074;4.758;2022-11-02T01:02:53;101302.41;;;9.21;100.00
71485;BME280;59300;52.074;4.758;2022-11-02T01:05:55;101317.19;;;9.29;100.00
71485;BME280;59300;52.074;4.758;2022-11-02T01:08:56;101299.72;;;9.25;100.00
71485;BME280;59300;52.074;4.758;2022-11-02T01:11:57;101318.13;;;9.26;100.00
71485;BME280;59300;52.074;4.758;2022-11-02T01:14:59;101308.31;;;9.36;100.00
71485;BME280;59300;52.074;4.758;2022-11-02T01:18:00;101304.03;;;9.29;100.00
71485;BME280;59300;52.074;4.758;2022-11-02T01:21:02;101310.16;;;9.32;100.00
71485;BME280;59300;52.074;4.758;2022-11-02T01:24:04;101311.75;;;9.41;100.00
71485;BME280;59300;52.074;4.758;2022-11-02T01:27:06;101308.25;;;9.41;100.00
71485;BME280;59300;52.074;4.758;2022-11-02T01:30:08;101307.59;;;9.26;100.00
71485;BME280;59300;52.074;4.758;2022-11-02T01:33:10;101309.44;;;9.19;100.00
71485;BME280;59300;52.074;4.758;2022-11-02T01:36:12;101312.19;;;9.12;100.00
71485;BME280;59300;52.074;4.758;2022-11-02T01:39:14;101311.22;;;9.19;100.00
71485;BME280;59300;52.074;4.758;2022-11-02T01:42:25;101317.47;;;9.10;100.00
71485;BME280;59300;52.074;4.758;2022-11-02T01:45:27;101308.75;;;9.06;100.00
71485;BME280;59300;52.074;4.758;2022-11-02T01:48:35;101300.97;;;8.99;100.00
71485;BME280;59300;52.074;4.758;2022-11-02T01:51:41;101301.72;;;9.07;100.00
71485;BME280;59300;52.074;4.758;2022-11-02T01:55:02;101289.38;;;9.12;100.00
71485;BME280;59300;52.074;4.758;2022-11-02T01:58:09;101296.91;;;9.37;100.00
71485;BME280;59300;52.074;4.758;2022-11-02T02:01:12;101289.03;;;9.34;100.00
71485;BME280;59300;52.074;4.758;2022-11-02T02:04:14;101299.34;;;9.49;100.00
71485;BME280;59300;52.074;4.758;2022-11-02T02:07:16;101308.16;;;9.45;100.00
71485;BME280;59300;52.074;4.758;2022-11-02T02:10:17;101301.84;;;9.57;100.00
71485;BME280;59300;52.074;4.758;2022-11-02T02:13:19;101324.53;;;9.66;100.00
71485;BME280;59300;52.074;4.758;2022-11-02T02:19:50;101326.81;;;9.88;100.00
71485;BME280;59300;52.074;4.758;2022-11-02T02:23:32;101323.81;;;10.08;100.00
71485;BME280;59300;52.074;4.758;2022-11-02T02:30:04;101308.06;;;10.05;100.00
71485;BME280;59300;52.074;4.758;2022-11-02T02:33:10;101289.44;;;10.12;100.00
71485;BME280;59300;52.074;4.758;2022-11-02T02:36:28;101302.63;;;10.12;100.00
71485;BME280;59300;52.074;4.758;2022-11-02T02:39:56;101306.09;;;10.16;100.00
71485;BME280;59300;52.074;4.758;2022-11-02T02:43:08;101308.56;;;10.24;100.00
71485;BME280;59300;52.074;4.758;2022-11-02T02:46:22;101305.72;;;10.35;100.00
71485;BME280;59300;52.074;4.758;2022-11-02T02:49:40;101312.56;;;10.47;100.00
71485;BME280;59300;52.074;4.758;2022-11-02T02:52:47;101309.91;;;10.47;100.00
71485;BME280;59300;52.074;4.758;2022-11-02T02:55:51;101317.03;;;10.41;100.00
71485;BME280;59300;52.074;4.758;2022-11-02T02:59:02;101307.38;;;10.42;100.00
71485;BME280;59300;52.074;4.758;2022-11-02T03:02:10;101303.06;;;10.36;100.00
71485;BME280;59300;52.074;4.758;2022-11-02T03:05:34;101306.66;;;10.32;100.00
71485;BME280;59300;52.074;4.758;2022-11-02T03:08:42;101315.50;;;10.28;100.00
71485;BME280;59300;52.074;4.758;2022-11-02T03:18:48;101324.69;;;10.08;100.00
71485;BME280;59300;52.074;4.758;2022-11-02T03:22:33;101319.41;;;10.08;100.00
71485;BME280;59300;52.074;4.758;2022-11-02T03:29:07;101347.63;;;10.03;100.00
71485;BME280;59300;52.074;4.758;2022-11-02T03:32:19;101344.00;;;10.10;100.00
71485;BME280;59300;52.074;4.758;2022-11-02T03:35:31;101337.22;;;9.95;100.00
71485;BME280;59300;52.074;4.758;2022-11-02T03:38:49;101352.97;;;10.00;100.00
71485;BME280;59300;52.074;4.758;2022-11-02T03:41:54;101352.22;;;9.92;100.00
71485;BME280;59300;52.074;4.758;2022-11-02T03:45:00;101332.84;;;9.93;100.00
71485;BME280;59300;52.074;4.758;2022-11-02T03:48:06;101345.06;;;10.00;100.00
71485;BME280;59300;52.074;4.758;2022-11-02T03:51:11;101373.84;;;10.12;100.00
71485;BME280;59300;52.074;4.758;2022-11-02T03:54:26;101382.88;;;9.99;100.00
71485;BME280;59300;52.074;4.758;2022-11-02T03:57:44;101385.63;;;9.91;100.00
71485;BME280;59300;52.074;4.758;2022-11-02T04:01:01;101375.94;;;9.93;100.00
71485;BME280;59300;52.074;4.758;2022-11-02T04:04:04;101377.72;;;9.90;100.00
71485;BME280;59300;52.074;4.758;2022-11-02T04:07:07;101386.69;;;9.79;100.00
71485;BME280;59300;52.074;4.758;2022-11-02T04:10:08;101402.38;;;9.87;100.00
71485;BME280;59300;52.074;4.758;2022-11-02T04:13:10;101392.59;;;9.95;100.00
71485;BME280;59300;52.074;4.758;2022-11-02T04:16:12;101418.13;;;9.92;100.00
71485;BME280;59300;52.074;4.758;2022-11-02T04:19:15;101416.28;;;9.97;100.00
71485;BME280;59300;52.074;4.758;2022-11-02T04:22:18;101437.28;;;10.03;100.00
71485;BME280;59300;52.074;4.758;2022-11-02T04:25:23;101444.38;;;10.01;100.00
71485;BME280;59300;52.074;4.758;2022-11-02T04:28:34;101442.66;;;9.97;100.00
71485;BME280;59300;52.074;4.758;2022-11-02T04:31:35;101449.75;;;9.92;100.00
71485;BME280;59300;52.074;4.758;2022-11-02T04:34:37;101461.28;;;9.86;100.00
71485;BME280;59300;52.074;4.758;2022-11-02T04:37:42;101471.03;;;9.79;100.00
71485;BME280;59300;52.074;4.758;2022-11-02T04:40:44;101478.91;;;9.82;100.00
71485;BME280;59300;52.074;4.758;2022-11-02T04:43:46;101471.03;;;9.79;100.00
71485;BME280;59300;52.074;4.758;2022-11-02T04:46:50;101486.06;;;9.74;100.00
71485;BME280;59300;52.074;4.758;2022-11-02T04:49:52;101483.47;;;9.71;100.00
71485;BME280;59300;52.074;4.758;2022-11-02T04:52:58;101490.50;;;9.72;100.00
71485;BME280;59300;52.074;4.758;2022-11-02T04:56:02;101495.03;;;9.59;100.00
71485;BME280;59300;52.074;4.758;2022-11-02T04:59:06;101493.47;;;9.46;100.00
71485;BME280;59300;52.074;4.758;2022-11-02T05:02:10;101511.00;;;9.47;100.00
71485;BME280;59300;52.074;4.758;2022-11-02T05:05:12;101517.28;;;9.38;100.00
71485;BME280;59300;52.074;4.758;2022-11-02T05:08:15;101515.44;;;9.43;100.00
71485;BME280;59300;52.074;4.758;2022-11-02T05:11:17;101520.72;;;9.43;100.00
71485;BME280;59300;52.074;4.758;2022-11-02T05:14:20;101524.41;;;9.27;100.00
71485;BME280;59300;52.074;4.758;2022-11-02T05:17:22;101525.28;;;9.29;100.00
71485;BME280;59300;52.074;4.758;2022-11-02T05:20:24;101548.97;;;9.32;100.00
71485;BME280;59300;52.074;4.758;2022-11-02T05:23:27;101556.75;;;9.43;100.00
71485;BME280;59300;52.074;4.758;2022-11-02T05:26:29;101557.59;;;9.43;100.00
71485;BME280;59300;52.074;4.758;2022-11-02T05:29:31;101558.34;;;9.56;100.00
71485;BME280;59300;52.074;4.758;2022-11-02T05:32:33;101573.28;;;9.56;100.00
71485;BME280;59300;52.074;4.758;2022-11-02T05:35:35;101573.31;;;9.52;100.00
71485;BME280;59300;52.074;4.758;2022-11-02T05:38:37;101580.41;;;9.47;100.00
71485;BME280;59300;52.074;4.758;2022-11-02T05:41:39;101592.72;;;9.45;100.00
71485;BME280;59300;52.074;4.758;2022-11-02T05:44:41;101589.09;;;9.56;100.00
71485;BME280;59300;52.074;4.758;2022-11-02T05:47:42;101591.06;;;9.36;100.00
71485;BME280;59300;52.074;4.758;2022-11-02T05:50:44;101600.78;;;9.31;100.00
71485;BME280;59300;52.074;4.758;2022-11-02T05:53:45;101611.22;;;9.41;100.00
71485;BME280;59300;52.074;4.758;2022-11-02T05:56:47;101626.25;;;9.28;100.00
71485;BME280;59300;52.074;4.758;2022-11-02T05:59:48;101622.78;;;9.26;100.00
71485;BME280;59300;52.074;4.758;2022-11-02T06:02:57;101640.25;;;9.36;100.00
71485;BME280;59300;52.074;4.758;2022-11-02T06:06:09;101641.22;;;9.27;100.00
71485;BME280;59300;52.074;4.758;2022-11-02T06:09:11;101644.78;;;9.21;100.00
71485;BME280;59300;52.074;4.758;2022-11-02T06:12:12;101651.75;;;9.24;100.00
71485;BME280;59300;52.074;4.758;2022-11-02T06:15:13;101656.06;;;9.33;100.00
71485;BME280;59300;52.074;4.758;2022-11-02T06:18:15;101657.69;;;9.49;100.00
71485;BME280;59300;52.074;4.758;2022-11-02T06:21:17;101667.97;;;9.71;100.00
71485;BME280;59300;52.074;4.758;2022-11-02T06:24:18;101672.41;;;9.66;100.00
71485;BME280;59300;52.074;4.758;2022-11-02T06:27:20;101676.94;;;9.55;100.00
71485;BME280;59300;52.074;4.758;2022-11-02T06:30:23;101685.81;;;9.44;100.00
71485;BME280;59300;52.074;4.758;2022-11-02T06:33:24;101695.50;;;9.44;100.00
71485;BME280;59300;52.074;4.758;2022-11-02T06:36:26;101696.44;;;9.33;100.00
71485;BME280;59300;52.074;4.758;2022-11-02T06:39:27;101704.28;;;9.43;100.00
71485;BME280;59300;52.074;4.758;2022-11-02T06:42:29;101706.09;;;9.36;100.00
71485;BME280;59300;52.074;4.758;2022-11-02T06:45:30;101713.84;;;9.53;100.00
71485;BME280;59300;52.074;4.758;2022-11-02T06:48:32;101737.53;;;9.56;100.00
71485;BME280;59300;52.074;4.758;2022-11-02T06:51:36;101740.13;;;9.61;99.79
71485;BME280;59300;52.074;4.758;2022-11-02T06:54:37;101745.31;;;9.70;98.07
71485;BME280;59300;52.074;4.758;2022-11-02T06:57:39;101759.44;;;9.63;98.60
71485;BME280;59300;52.074;4.758;2022-11-02T07:00:41;101768.13;;;9.74;97.24
71485;BME280;59300;52.074;4.758;2022-11-02T07:03:43;101769.84;;;9.77;97.64
71485;BME280;59300;52.074;4.758;2022-11-02T07:06:44;101792.72;;;9.73;97.86
71485;BME280;59300;52.074;4.758;2022-11-02T07:09:46;101797.94;;;9.79;96.74
71485;BME280;59300;52.074;4.758;2022-11-02T07:12:50;101803.03;;;10.01;94.61
71485;BME280;59300;52.074;4.758;2022-11-02T07:15:53;101802.22;;;9.90;95.53
71485;BME280;59300;52.074;4.758;2022-11-02T07:18:55;101806.72;;;9.81;96.16
71485;BME280;59300;52.074;4.758;2022-11-02T07:21:56;101814.69;;;9.74;96.48
71485;BME280;59300;52.074;4.758;2022-11-02T07:24:58;101833.13;;;9.75;96.04
71485;BME280;59300;52.074;4.758;2022-11-02T07:28:00;101831.28;;;9.87;94.61
71485;BME280;59300;52.074;4.758;2022-11-02T07:31:02;101836.69;;;9.68;96.62
71485;BME280;59300;52.074;4.758;2022-11-02T07:34:03;101836.78;;;9.56;96.18
71485;BME280;59300;52.074;4.758;2022-11-02T07:37:04;101845.44;;;9.72;95.09
71485;BME280;59300;52.074;4.758;2022-11-02T07:40:07;101841.97;;;9.68;95.44
71485;BME280;59300;52.074;4.758;2022-11-02T07:43:09;101856.06;;;9.62;96.28
71485;BME280;59300;52.074;4.758;2022-11-02T07:46:25;101858.72;;;9.62;97.09
71485;BME280;59300;52.074;4.758;2022-11-02T07:49:26;101869.28;;;9.58;97.76
71485;BME280;59300;52.074;4.758;2022-11-02T07:52:28;101870.19;;;9.53;98.12
71485;BME280;59300;52.074;4.758;2022-11-02T07:55:30;101876.28;;;9.60;97.33
71485;BME280;59300;52.074;4.758;2022-11-02T07:58:32;101876.31;;;9.59;98.05
71485;BME280;59300;52.074;4.758;2022-11-02T08:01:34;101885.97;;;9.63;96.95
71485;BME280;59300;52.074;4.758;2022-11-02T08:04:35;101874.44;;;9.72;96.44
71485;BME280;59300;52.074;4.758;2022-11-02T08:07:42;101896.38;;;9.78;96.63
71485;BME280;59300;52.074;4.758;2022-11-02T08:10:45;101892.91;;;9.72;96.94
71485;BME280;59300;52.074;4.758;2022-11-02T08:13:47;101908.72;;;9.73;98.01
71485;BME280;59300;52.074;4.758;2022-11-02T08:16:53;101909.50;;;9.83;97.47
71485;BME280;59300;52.074;4.758;2022-11-02T08:19:54;101907.75;;;9.83;98.36
71485;BME280;59300;52.074;4.758;2022-11-02T08:22:56;101910.22;;;10.02;98.50
71485;BME280;59300;52.074;4.758;2022-11-02T08:25:58;101909.00;;;10.43;96.63
71485;BME280;59300;52.074;4.758;2022-11-02T08:29:01;101905.38;;;10.54;96.45
71485;BME280;59300;52.074;4.758;2022-11-02T08:32:02;101904.53;;;10.52;95.77
71485;BME280;59300;52.074;4.758;2022-11-02T08:35:04;101906.19;;;10.62;94.21
71485;BME280;59300;52.074;4.758;2022-11-02T08:38:06;101915.78;;;10.71;93.66
71485;BME280;59300;52.074;4.758;2022-11-02T08:41:08;101914.03;;;10.68;93.24
71485;BME280;59300;52.074;4.758;2022-11-02T08:44:10;101914.84;;;10.73;92.40
71485;BME280;59300;52.074;4.758;2022-11-02T08:47:11;101910.25;;;10.89;90.35
71485;BME280;59300;52.074;4.758;2022-11-02T08:50:12;101921.44;;;11.12;88.82
71485;BME280;59300;52.074;4.758;2022-11-02T08:53:14;101927.63;;;11.09;89.74
71485;BME280;59300;52.074;4.758;2022-11-02T08:56:15;101930.28;;;11.07;89.66
71485;BME280;59300;52.074;4.758;2022-11-02T08:59:17;101933.94;;;10.97;90.29
71485;BME280;59300;52.074;4.758;2022-11-02T09:02:18;101939.19;;;11.00;90.02
71485;BME280;59300;52.074;4.758;2022-11-02T09:05:20;101947.88;;;11.09;87.98
71485;BME280;59300;52.074;4.758;2022-11-02T09:08:21;101951.38;;;11.09;90.46
71485;BME280;59300;52.074;4.758;2022-11-02T09:11:23;101949.47;;;11.22;89.54
71485;BME280;59300;52.074;4.758;2022-11-02T09:14:24;101948.59;;;11.21;87.91
71485;BME280;59300;52.074;4.758;2022-11-02T09:17:27;101953.34;;;11.63;86.37
71485;BME280;59300;52.074;4.758;2022-11-02T09:20:29;101955.06;;;12.22;81.00
71485;BME280;59300;52.074;4.758;2022-11-02T09:23:31;101964.69;;;12.78;78.52
71485;BME280;59300;52.074;4.758;2022-11-02T09:26:33;101961.84;;;12.86;78.51
71485;BME280;59300;52.074;4.758;2022-11-02T09:29:34;101973.22;;;12.44;77.89
71485;BME280;59300;52.074;4.758;2022-11-02T09:32:36;101972.00;;;12.12;79.21
71485;BME280;59300;52.074;4.758;2022-11-02T09:35:41;101970.44;;;12.00;82.64
71485;BME280;59300;52.074;4.758;2022-11-02T09:38:42;101972.38;;;11.86;82.63
71485;BME280;59300;52.074;4.758;2022-11-02T09:42:00;101980.41;;;11.79;82.06
71485;BME280;59300;52.074;4.758;2022-11-02T09:45:07;101983.03;;;11.81;81.52
71485;BME280;59300;52.074;4.758;2022-11-02T09:48:17;101993.56;;;11.84;82.21
71485;BME280;59300;52.074;4.758;2022-11-02T09:54:44;101979.91;;;12.15;81.42
71485;BME280;59300;52.074;4.758;2022-11-02T09:57:50;101995.00;;;12.08;81.88
71485;BME280;59300;52.074;4.758;2022-11-02T10:00:58;101991.31;;;12.17;82.11
71485;BME280;59300;52.074;4.758;2022-11-02T10:14:19;101996.38;;;12.81;78.11
71485;BME280;59300;52.074;4.758;2022-11-02T10:17:28;101996.84;;;12.56;78.84
71485;BME280;59300;52.074;4.758;2022-11-02T10:20:45;101995.94;;;12.57;79.77
71485;BME280;59300;52.074;4.758;2022-11-02T10:23:53;101995.09;;;12.55;79.34
71485;BME280;59300;52.074;4.758;2022-11-02T10:26:58;102000.38;;;12.57;80.35
71485;BME280;59300;52.074;4.758;2022-11-02T10:30:26;102013.03;;;12.41;81.25
71485;BME280;59300;52.074;4.758;2022-11-02T10:33:29;102012.53;;;12.67;80.77
71485;BME280;59300;52.074;4.758;2022-11-02T10:36:45;102013.34;;;12.72;80.01
71485;BME280;59300;52.074;4.758;2022-11-02T10:39:57;102015.16;;;12.69;82.25
71485;BME280;59300;52.074;4.758;2022-11-02T10:46:28;102022.81;;;12.84;83.57
71485;BME280;59300;52.074;4.758;2022-11-02T10:53:13;102035.34;;;13.67;81.11
71485;BME280;59300;52.074;4.758;2022-11-02T10:56:35;102032.00;;;13.12;83.42
71485;BME280;59300;52.074;4.758;2022-11-02T10:59:37;102032.72;;;13.21;84.28
71485;BME280;59300;52.074;4.758;2022-11-02T11:02:39;102024.44;;;13.40;82.27
71485;BME280;59300;52.074;4.758;2022-11-02T11:08:51;102034.38;;;14.47;75.97
71485;BME280;59300;52.074;4.758;2022-11-02T11:12:00;102027.28;;;15.15;74.45
71485;BME280;59300;52.074;4.758;2022-11-02T11:15:03;102028.34;;;15.08;74.31
71485;BME280;59300;52.074;4.758;2022-11-02T11:18:25;102024.91;;;15.05;71.62
71485;BME280;59300;52.074;4.758;2022-11-02T11:21:47;102025.94;;;14.65;72.27
71485;BME280;59300;52.074;4.758;2022-11-02T11:24:49;102018.88;;;13.51;76.61
71485;BME280;59300;52.074;4.758;2022-11-02T11:27:58;102014.38;;;13.11;77.51
71485;BME280;59300;52.074;4.758;2022-11-02T11:31:15;102006.88;;;12.87;81.30
71485;BME280;59300;52.074;4.758;2022-11-02T11:34:44;102020.66;;;13.05;82.61
71485;BME280;59300;52.074;4.758;2022-11-02T11:37:55;102024.50;;;13.35;81.55
71485;BME280;59300;52.074;4.758;2022-11-02T11:40:58;102023.53;;;13.41;78.94
71485;BME280;59300;52.074;4.758;2022-11-02T11:44:00;102023.31;;;13.50;78.58
71485;BME280;59300;52.074;4.758;2022-11-02T11:47:03;102028.38;;;13.63;77.79
71485;BME280;59300;52.074;4.758;2022-11-02T11:50:10;102033.63;;;13.66;77.83
71485;BME280;59300;52.074;4.758;2022-11-02T11:53:22;102029.31;;;13.59;76.71
71485;BME280;59300;52.074;4.758;2022-11-02T11:56:24;102008.38;;;13.48;76.10
71485;BME280;59300;52.074;4.758;2022-11-02T11:59:47;102020.69;;;13.50;74.99
71485;BME280;59300;52.074;4.758;2022-11-02T12:03:05;102018.56;;;13.66;75.90
71485;BME280;59300;52.074;4.758;2022-11-02T12:09:35;102013.94;;;13.76;74.92
71485;BME280;59300;52.074;4.758;2022-11-02T12:13:08;102012.25;;;13.72;73.49
71485;BME280;59300;52.074;4.758;2022-11-02T12:16:43;102023.06;;;13.63;73.50
71485;BME280;59300;52.074;4.758;2022-11-02T12:20:17;102003.19;;;13.42;76.77
71485;BME280;59300;52.074;4.758;2022-11-02T12:26:40;102000.72;;;13.73;76.27
71485;BME280;59300;52.074;4.758;2022-11-02T12:29:59;101999.88;;;13.71;75.57
71485;BME280;59300;52.074;4.758;2022-11-02T12:33:15;101997.28;;;13.68;76.49
71485;BME280;59300;52.074;4.758;2022-11-02T12:40:43;101991.44;;;13.54;76.01
71485;BME280;59300;52.074;4.758;2022-11-02T12:43:49;102006.06;;;13.72;76.29
71485;BME280;59300;52.074;4.758;2022-11-02T12:56:52;101992.53;;;13.43;81.74
71485;BME280;59300;52.074;4.758;2022-11-02T12:59:59;101976.31;;;13.57;81.75
71485;BME280;59300;52.074;4.758;2022-11-02T13:06:07;101969.13;;;13.62;79.51
71485;BME280;59300;52.074;4.758;2022-11-02T13:09:22;101958.59;;;13.59;80.81
71485;BME280;59300;52.074;4.758;2022-11-02T13:12:26;101969.22;;;13.59;79.17
71485;BME280;59300;52.074;4.758;2022-11-02T13:15:30;101954.16;;;13.60;77.89
71485;BME280;59300;52.074;4.758;2022-11-02T13:18:40;101950.59;;;13.20;79.63
71485;BME280;59300;52.074;4.758;2022-11-02T13:21:50;101963.59;;;13.31;78.84
71485;BME280;59300;52.074;4.758;2022-11-02T13:24:57;101949.84;;;13.13;78.43
71485;BME280;59300;52.074;4.758;2022-11-02T13:28:10;101945.50;;;13.09;79.31
71485;BME280;59300;52.074;4.758;2022-11-02T13:31:17;101944.59;;;13.10;78.46
71485;BME280;59300;52.074;4.758;2022-11-02T13:34:31;101948.03;;;13.14;77.70
71485;BME280;59300;52.074;4.758;2022-11-02T13:37:37;101939.19;;;13.16;77.63
71485;BME280;59300;52.074;4.758;2022-11-02T13:40:46;101937.28;;;13.21;79.66
71485;BME280;59300;52.074;4.758;2022-11-02T13:50:55;101933.88;;;13.16;81.58
71485;BME280;59300;52.074;4.758;2022-11-02T13:53:59;101937.56;;;13.09;82.86
71485;BME280;59300;52.074;4.758;2022-11-02T13:57:01;101938.81;;;13.32;82.50
71485;BME280;59300;52.074;4.758;2022-11-02T14:00:07;101929.84;;;13.39;81.58
71485;BME280;59300;52.074;4.758;2022-11-02T14:06:56;101916.72;;;13.33;82.05
71485;BME280;59300;52.074;4.758;2022-11-02T14:10:16;101920.34;;;13.29;83.08
71485;BME280;59300;52.074;4.758;2022-11-02T14:19:54;101899.16;;;12.86;85.95
71485;BME280;59300;52.074;4.758;2022-11-02T14:26:29;101896.75;;;12.74;86.04
71485;BME280;59300;52.074;4.758;2022-11-02T14:29:49;101889.56;;;12.81;86.52
71485;BME280;59300;52.074;4.758;2022-11-02T14:33:02;101885.13;;;12.81;86.55
71485;BME280;59300;52.074;4.758;2022-11-02T14:36:09;101886.75;;;12.88;86.53
71485;BME280;59300;52.074;4.758;2022-11-02T14:39:23;101889.41;;;12.88;86.37
71485;BME280;59300;52.074;4.758;2022-11-02T14:49:34;101891.38;;;12.79;85.78
71485;BME280;59300;52.074;4.758;2022-11-02T14:52:41;101885.38;;;12.69;86.22
71485;BME280;59300;52.074;4.758;2022-11-02T14:55:51;101878.47;;;12.62;85.81
71485;BME280;59300;52.074;4.758;2022-11-02T14:58:55;101876.97;;;12.48;87.02
71485;BME280;59300;52.074;4.758;2022-11-02T15:02:04;101870.97;;;12.38;86.79
71485;BME280;59300;52.074;4.758;2022-11-02T15:05:19;101861.38;;;12.33;85.89
71485;BME280;59300;52.074;4.758;2022-11-02T15:08:50;101875.59;;;12.27;85.86
71485;BME280;59300;52.074;4.758;2022-11-02T15:11:56;101862.53;;;12.16;86.48
71485;BME280;59300;52.074;4.758;2022-11-02T15:15:23;101858.31;;;12.07;86.54
71485;BME280;59300;52.074;4.758;2022-11-02T15:21:30;101854.09;;;11.94;88.01
71485;BME280;59300;52.074;4.758;2022-11-02T15:24:32;101849.88;;;11.82;89.25
71485;BME280;59300;52.074;4.758;2022-11-02T15:27:35;101847.44;;;11.71;90.42
71485;BME280;59300;52.074;4.758;2022-11-02T15:30:42;101850.28;;;11.59;92.17
71485;BME280;59300;52.074;4.758;2022-11-02T15:33:47;101843.38;;;11.50;92.76
71485;BME280;59300;52.074;4.758;2022-11-02T15:36:49;101856.53;;;11.53;92.51
71485;BME280;59300;52.074;4.758;2022-11-02T15:39:53;101848.69;;;11.47;92.51
71485;BME280;59300;52.074;4.758;2022-11-02T15:43:04;101849.56;;;11.49;91.80
71485;BME280;59300;52.074;4.758;2022-11-02T15:49:25;101838.41;;;11.28;92.13
71485;BME280;59300;52.074;4.758;2022-11-02T16:03:02;101818.28;;;11.19;90.35
71485;BME280;59300;52.074;4.758;2022-11-02T16:06:05;101813.84;;;11.21;88.81
71485;BME280;59300;52.074;4.758;2022-11-02T16:09:29;101807.84;;;11.12;90.20
71485;BME280;59300;52.074;4.758;2022-11-02T16:12:33;101807.06;;;11.03;90.71
71485;BME280;59300;52.074;4.758;2022-11-02T16:15:35;101807.97;;;11.01;92.03
71485;BME280;59300;52.074;4.758;2022-11-02T16:18:38;101810.63;;;11.02;92.13
71485;BME280;59300;52.074;4.758;2022-11-02T16:21:40;101812.34;;;11.03;92.27
71485;BME280;59300;52.074;4.758;2022-11-02T16:24:43;101803.59;;;11.01;92.84
71485;BME280;59300;52.074;4.758;2022-11-02T16:27:46;101803.59;;;11.01;91.98
71485;BME280;59300;52.074;4.758;2022-11-02T16:31:06;101798.34;;;10.98;92.29
71485;BME280;59300;52.074;4.758;2022-11-02T16:34:20;101793.09;;;10.95;91.77
71485;BME280;59300;52.074;4.758;2022-11-02T16:37:23;101799.31;;;10.93;91.66
71485;BME280;59300;52.074;4.758;2022-11-02T16:40:25;101792.13;;;11.01;91.18
71485;BME280;59300;52.074;4.758;2022-11-02T16:43:28;101800.91;;;11.03;89.69
71485;BME280;59300;52.074;4.758;2022-11-02T16:52:58;101784.28;;;10.96;88.91
71485;BME280;59300;52.074;4.758;2022-11-02T16:56:15;101787.00;;;10.90;89.65
71485;BME280;59300;52.074;4.758;2022-11-02T16:59:17;101792.34;;;10.87;89.50
71485;BME280;59300;52.074;4.758;2022-11-02T17:02:33;101782.75;;;10.81;89.76
71485;BME280;59300;52.074;4.758;2022-11-02T17:05:40;101785.47;;;10.73;90.47
71485;BME280;59300;52.074;4.758;2022-11-02T17:08:42;101787.28;;;10.68;90.27
71485;BME280;59300;52.074;4.758;2022-11-02T17:11:45;101784.69;;;10.67;90.56
71485;BME280;59300;52.074;4.758;2022-11-02T17:14:48;101794.31;;;10.69;90.42
71485;BME280;59300;52.074;4.758;2022-11-02T17:24:39;101781.94;;;10.74;89.76
71485;BME280;59300;52.074;4.758;2022-11-02T17:27:41;101773.13;;;10.75;89.52
71485;BME280;59300;52.074;4.758;2022-11-02T17:30:44;101774.91;;;10.73;89.30
71485;BME280;59300;52.074;4.758;2022-11-02T17:33:46;101768.69;;;10.78;89.48
71485;BME280;59300;52.074;4.758;2022-11-02T17:36:48;101772.25;;;10.77;89.16
71485;BME280;59300;52.074;4.758;2022-11-02T17:39:50;101772.34;;;10.67;90.38
71485;BME280;59300;52.074;4.758;2022-11-02T17:42:52;101776.75;;;10.68;90.03
71485;BME280;59300;52.074;4.758;2022-11-02T17:45:56;101773.22;;;10.69;90.24
71485;BME280;59300;52.074;4.758;2022-11-02T17:48:57;101773.13;;;10.75;90.32
71485;BME280;59300;52.074;4.758;2022-11-02T17:51:59;101761.66;;;10.78;89.93
71485;BME280;59300;52.074;4.758;2022-11-02T17:55:00;101754.59;;;10.80;89.31
71485;BME280;59300;52.074;4.758;2022-11-02T17:58:04;101751.94;;;10.79;89.96
71485;BME280;59300;52.074;4.758;2022-11-02T18:01:07;101748.41;;;10.81;88.95
71485;BME280;59300;52.074;4.758;2022-11-02T18:04:10;101735.13;;;10.86;88.72
71485;BME280;59300;52.074;4.758;2022-11-02T18:07:11;101742.16;;;10.87;88.62
71485;BME280;59300;52.074;4.758;2022-11-02T18:10:13;101738.59;;;10.89;88.22
71485;BME280;59300;52.074;4.758;2022-11-02T18:13:17;101733.44;;;10.82;89.41
71485;BME280;59300;52.074;4.758;2022-11-02T18:16:19;101740.41;;;10.86;89.22